sensor_id;sensor_type;location;lat;lon;timestamp;P1;durP1;ratioP1;P2;durP2;ratioP2
49502;SDS011;35409;48.776;9.204;2023-02-28T00:01:26;5.55;;;2.65;;
49502;SDS011;35409;48.776;9.204;2023-02-28T00:03:51;5.25;;;2.58;;
49502;SDS011;35409;48.776;9.204;2023-02-28T00:06:17;6.80;;;2.58;;
49502;SDS011;35409;48.776;9.204;2023-02-28T00:08:43;6.10;;;2.60;;
49502;SDS011;35409;48.776;9.204;2023-02-28T00:11:10;8.23;;;2.90;;
49502;SDS011;35409;48.776;9.204;2023-02-28T00:13:39;6.90;;;3.10;;
49502;SDS011;35409;48.776;9.204;2023-02-28T00:16:11;5.03;;;2.58;;
49502;SDS011;35409;48.776;9.204;2023-02-28T00:18:38;7.13;;;3.13;;
49502;SDS011;35409;48.776;9.204;2023-02-28T00:21:04;5.57;;;2.72;;
49502;SDS011;35409;48.776;9.204;2023-02-28T00:23:31;6.57;;;2.90;;
49502;SDS011;35409;48.776;9.204;2023-02-28T00:25:56;4.78;;;2.53;;
49502;SDS011;35409;48.776;9.204;2023-02-28T00:28:22;8.23;;;2.50;;
49502;SDS011;35409;48.776;9.204;2023-02-28T00:30:48;5.70;;;2.85;;
49502;SDS011;35409;48.776;9.204;2023-02-28T00:33:13;3.55;;;2.42;;
49502;SDS011;35409;48.776;9.204;2023-02-28T00:35:39;5.80;;;2.50;;
49502;SDS011;35409;48.776;9.204;2023-02-28T00:38:05;6.65;;;3.08;;
49502;SDS011;35409;48.776;9.204;2023-02-28T00:40:30;5.68;;;2.47;;
49502;SDS011;35409;48.776;9.204;2023-02-28T00:42:56;6.07;;;2.65;;
49502;SDS011;35409;48.776;9.204;2023-02-28T00:45:22;4.30;;;2.92;;
49502;SDS011;35409;48.776;9.204;2023-02-28T00:47:48;6.68;;;2.75;;
49502;SDS011;35409;48.776;9.204;2023-02-28T00:50:16;7.75;;;3.47;;
49502;SDS011;35409;48.776;9.204;2023-02-28T00:52:43;6.55;;;2.50;;
49502;SDS011;35409;48.776;9.204;2023-02-28T00:55:09;5.43;;;2.47;;
49502;SDS011;35409;48.776;9.204;2023-02-28T00:57:35;4.55;;;2.78;;
49502;SDS011;35409;48.776;9.204;2023-02-28T01:00:00;4.65;;;2.63;;
49502;SDS011;35409;48.776;9.204;2023-02-28T01:02:26;7.85;;;2.88;;
49502;SDS011;35409;48.776;9.204;2023-02-28T01:04:52;7.30;;;2.70;;
49502;SDS011;35409;48.776;9.204;2023-02-28T01:07:17;6.05;;;2.47;;
49502;SDS011;35409;48.776;9.204;2023-02-28T01:09:43;7.60;;;3.08;;
49502;SDS011;35409;48.776;9.204;2023-02-28T01:12:08;5.40;;;2.28;;
49502;SDS011;35409;48.776;9.204;2023-02-28T01:14:34;5.53;;;3.03;;
49502;SDS011;35409;48.776;9.204;2023-02-28T01:17:00;4.10;;;2.63;;
49502;SDS011;35409;48.776;9.204;2023-02-28T01:19:26;7.18;;;2.40;;
49502;SDS011;35409;48.776;9.204;2023-02-28T01:21:52;3.85;;;2.38;;
49502;SDS011;35409;48.776;9.204;2023-02-28T01:24:18;6.25;;;3.25;;
49502;SDS011;35409;48.776;9.204;2023-02-28T01:26:44;4.75;;;2.58;;
49502;SDS011;35409;48.776;9.204;2023-02-28T01:29:10;5.13;;;2.25;;
49502;SDS011;35409;48.776;9.204;2023-02-28T01:31:35;4.13;;;2.35;;
49502;SDS011;35409;48.776;9.204;2023-02-28T01:34:01;4.20;;;2.80;;
49502;SDS011;35409;48.776;9.204;2023-02-28T01:36:27;4.72;;;2.70;;
49502;SDS011;35409;48.776;9.204;2023-02-28T01:38:53;4.70;;;2.50;;
49502;SDS011;35409;48.776;9.204;2023-02-28T01:41:25;5.63;;;2.53;;
49502;SDS011;35409;48.776;9.204;2023-02-28T01:43:57;5.53;;;2.80;;
49502;SDS011;35409;48.776;9.204;2023-02-28T01:46:28;4.90;;;2.70;;
49502;SDS011;35409;48.776;9.204;2023-02-28T01:49:16;6.70;;;2.60;;
49502;SDS011;35409;48.776;9.204;2023-02-28T01:51:42;4.32;;;2.78;;
49502;SDS011;35409;48.776;9.204;2023-02-28T01:54:16;5.70;;;3.08;;
49502;SDS011;35409;48.776;9.204;2023-02-28T01:56:53;4.32;;;2.78;;
49502;SDS011;35409;48.776;9.204;2023-02-28T01:59:25;5.75;;;2.75;;
49502;SDS011;35409;48.776;9.204;2023-02-28T02:01:56;6.90;;;2.65;;
49502;SDS011;35409;48.776;9.204;2023-02-28T02:04:22;3.70;;;2.63;;
49502;SDS011;35409;48.776;9.204;2023-02-28T02:06:51;6.82;;;2.70;;
49502;SDS011;35409;48.776;9.204;2023-02-28T02:09:17;3.78;;;2.97;;
49502;SDS011;35409;48.776;9.204;2023-02-28T02:11:43;6.50;;;3.10;;
49502;SDS011;35409;48.776;9.204;2023-02-28T02:14:23;6.28;;;3.05;;
49502;SDS011;35409;48.776;9.204;2023-02-28T02:30:48;7.88;;;3.75;;
49502;SDS011;35409;48.776;9.204;2023-02-28T02:36:38;8.05;;;3.47;;
49502;SDS011;35409;48.776;9.204;2023-02-28T02:39:29;5.93;;;3.45;;
49502;SDS011;35409;48.776;9.204;2023-02-28T02:42:04;5.57;;;3.63;;
49502;SDS011;35409;48.776;9.204;2023-02-28T02:44:40;5.90;;;3.53;;
49502;SDS011;35409;48.776;9.204;2023-02-28T02:47:14;7.40;;;3.83;;
49502;SDS011;35409;48.776;9.204;2023-02-28T02:49:44;7.88;;;3.67;;
49502;SDS011;35409;48.776;9.204;2023-02-28T02:52:17;8.95;;;3.67;;
49502;SDS011;35409;48.776;9.204;2023-02-28T02:57:15;7.38;;;3.40;;
49502;SDS011;35409;48.776;9.204;2023-02-28T02:59:46;7.15;;;3.50;;
49502;SDS011;35409;48.776;9.204;2023-02-28T03:02:14;8.88;;;3.83;;
49502;SDS011;35409;48.776;9.204;2023-02-28T03:04:53;5.97;;;4.00;;
49502;SDS011;35409;48.776;9.204;2023-02-28T03:07:25;7.40;;;4.47;;
49502;SDS011;35409;48.776;9.204;2023-02-28T03:09:52;10.07;;;4.10;;
49502;SDS011;35409;48.776;9.204;2023-02-28T03:12:23;7.55;;;3.88;;
49502;SDS011;35409;48.776;9.204;2023-02-28T03:23:16;6.97;;;3.60;;
49502;SDS011;35409;48.776;9.204;2023-02-28T03:28:22;9.18;;;4.55;;
49502;SDS011;35409;48.776;9.204;2023-02-28T03:31:13;7.90;;;4.10;;
49502;SDS011;35409;48.776;9.204;2023-02-28T03:33:42;8.05;;;4.10;;
49502;SDS011;35409;48.776;9.204;2023-02-28T03:36:20;8.10;;;4.00;;
49502;SDS011;35409;48.776;9.204;2023-02-28T03:41:19;6.57;;;4.07;;
49502;SDS011;35409;48.776;9.204;2023-02-28T03:43:56;8.57;;;4.35;;
49502;SDS011;35409;48.776;9.204;2023-02-28T03:46:27;8.43;;;4.20;;
49502;SDS011;35409;48.776;9.204;2023-02-28T03:49:04;7.07;;;4.32;;
49502;SDS011;35409;48.776;9.204;2023-02-28T03:51:46;11.38;;;4.63;;
49502;SDS011;35409;48.776;9.204;2023-02-28T03:54:15;8.13;;;3.83;;
49502;SDS011;35409;48.776;9.204;2023-02-28T03:59:55;7.97;;;4.57;;
49502;SDS011;35409;48.776;9.204;2023-02-28T04:02:23;9.40;;;4.88;;
49502;SDS011;35409;48.776;9.204;2023-02-28T04:04:49;8.85;;;4.28;;
49502;SDS011;35409;48.776;9.204;2023-02-28T04:07:16;7.10;;;4.25;;
49502;SDS011;35409;48.776;9.204;2023-02-28T04:09:42;8.13;;;4.72;;
49502;SDS011;35409;48.776;9.204;2023-02-28T04:12:08;8.63;;;4.95;;
49502;SDS011;35409;48.776;9.204;2023-02-28T04:14:33;6.10;;;4.28;;
49502;SDS011;35409;48.776;9.204;2023-02-28T04:16:59;6.05;;;4.38;;
49502;SDS011;35409;48.776;9.204;2023-02-28T04:19:25;7.72;;;4.78;;
49502;SDS011;35409;48.776;9.204;2023-02-28T04:21:51;7.93;;;4.70;;
49502;SDS011;35409;48.776;9.204;2023-02-28T04:24:21;11.70;;;4.75;;
49502;SDS011;35409;48.776;9.204;2023-02-28T04:26:50;8.57;;;4.35;;
49502;SDS011;35409;48.776;9.204;2023-02-28T04:29:19;10.02;;;4.97;;
49502;SDS011;35409;48.776;9.204;2023-02-28T04:31:52;7.05;;;4.50;;
49502;SDS011;35409;48.776;9.204;2023-02-28T04:34:18;7.43;;;4.43;;
49502;SDS011;35409;48.776;9.204;2023-02-28T04:36:46;10.52;;;4.80;;
49502;SDS011;35409;48.776;9.204;2023-02-28T04:39:14;7.18;;;4.10;;
49502;SDS011;35409;48.776;9.204;2023-02-28T04:41:40;7.72;;;4.78;;
49502;SDS011;35409;48.776;9.204;2023-02-28T04:44:05;8.63;;;4.90;;
49502;SDS011;35409;48.776;9.204;2023-02-28T04:46:31;9.95;;;5.03;;
49502;SDS011;35409;48.776;9.204;2023-02-28T04:48:57;7.85;;;4.78;;
49502;SDS011;35409;48.776;9.204;2023-02-28T04:51:23;8.50;;;4.68;;
49502;SDS011;35409;48.776;9.204;2023-02-28T04:53:48;8.32;;;5.03;;
49502;SDS011;35409;48.776;9.204;2023-02-28T04:56:15;8.95;;;4.93;;
49502;SDS011;35409;48.776;9.204;2023-02-28T04:58:42;11.55;;;4.88;;
49502;SDS011;35409;48.776;9.204;2023-02-28T05:01:16;6.68;;;4.90;;
49502;SDS011;35409;48.776;9.204;2023-02-28T05:03:42;8.55;;;4.68;;
49502;SDS011;35409;48.776;9.204;2023-02-28T05:06:08;10.07;;;5.13;;
49502;SDS011;35409;48.776;9.204;2023-02-28T05:08:35;10.20;;;5.28;;
49502;SDS011;35409;48.776;9.204;2023-02-28T05:11:01;7.40;;;4.28;;
49502;SDS011;35409;48.776;9.204;2023-02-28T05:13:27;11.50;;;5.80;;
49502;SDS011;35409;48.776;9.204;2023-02-28T05:15:53;10.68;;;5.82;;
49502;SDS011;35409;48.776;9.204;2023-02-28T05:18:19;6.93;;;5.28;;
49502;SDS011;35409;48.776;9.204;2023-02-28T05:20:45;9.82;;;4.97;;
49502;SDS011;35409;48.776;9.204;2023-02-28T05:23:11;9.02;;;4.93;;
49502;SDS011;35409;48.776;9.204;2023-02-28T05:25:38;6.65;;;4.60;;
49502;SDS011;35409;48.776;9.204;2023-02-28T05:28:04;12.50;;;5.30;;
49502;SDS011;35409;48.776;9.204;2023-02-28T05:30:29;8.60;;;5.72;;
49502;SDS011;35409;48.776;9.204;2023-02-28T05:32:57;9.40;;;5.18;;
49502;SDS011;35409;48.776;9.204;2023-02-28T05:35:23;8.82;;;5.38;;
49502;SDS011;35409;48.776;9.204;2023-02-28T05:37:49;8.63;;;5.35;;
49502;SDS011;35409;48.776;9.204;2023-02-28T05:40:15;8.10;;;5.15;;
49502;SDS011;35409;48.776;9.204;2023-02-28T05:42:41;10.48;;;5.75;;
49502;SDS011;35409;48.776;9.204;2023-02-28T05:45:07;9.15;;;5.80;;
49502;SDS011;35409;48.776;9.204;2023-02-28T05:47:34;11.32;;;5.80;;
49502;SDS011;35409;48.776;9.204;2023-02-28T05:49:59;11.90;;;6.25;;
49502;SDS011;35409;48.776;9.204;2023-02-28T05:52:26;15.57;;;5.90;;
49502;SDS011;35409;48.776;9.204;2023-02-28T05:54:52;10.18;;;5.95;;
49502;SDS011;35409;48.776;9.204;2023-02-28T05:57:17;11.07;;;6.18;;
49502;SDS011;35409;48.776;9.204;2023-02-28T05:59:43;11.48;;;5.78;;
49502;SDS011;35409;48.776;9.204;2023-02-28T06:02:12;11.15;;;6.25;;
49502;SDS011;35409;48.776;9.204;2023-02-28T06:04:38;8.68;;;5.40;;
49502;SDS011;35409;48.776;9.204;2023-02-28T06:07:05;9.48;;;6.15;;
49502;SDS011;35409;48.776;9.204;2023-02-28T06:09:32;11.73;;;6.00;;
49502;SDS011;35409;48.776;9.204;2023-02-28T06:12:01;13.18;;;5.57;;
49502;SDS011;35409;48.776;9.204;2023-02-28T06:14:30;11.68;;;6.32;;
49502;SDS011;35409;48.776;9.204;2023-02-28T06:16:57;10.65;;;6.20;;
49502;SDS011;35409;48.776;9.204;2023-02-28T06:19:23;11.10;;;5.75;;
49502;SDS011;35409;48.776;9.204;2023-02-28T06:21:52;11.88;;;6.32;;
49502;SDS011;35409;48.776;9.204;2023-02-28T06:24:19;9.23;;;6.07;;
49502;SDS011;35409;48.776;9.204;2023-02-28T06:26:45;10.65;;;6.35;;
49502;SDS011;35409;48.776;9.204;2023-02-28T06:29:11;9.55;;;6.32;;
49502;SDS011;35409;48.776;9.204;2023-02-28T06:31:41;11.60;;;6.13;;
49502;SDS011;35409;48.776;9.204;2023-02-28T06:34:06;11.15;;;6.28;;
49502;SDS011;35409;48.776;9.204;2023-02-28T06:36:32;10.15;;;5.85;;
49502;SDS011;35409;48.776;9.204;2023-02-28T06:38:58;11.60;;;6.43;;
49502;SDS011;35409;48.776;9.204;2023-02-28T06:41:24;10.68;;;6.20;;
49502;SDS011;35409;48.776;9.204;2023-02-28T06:43:50;10.60;;;6.78;;
49502;SDS011;35409;48.776;9.204;2023-02-28T06:46:17;11.30;;;6.40;;
49502;SDS011;35409;48.776;9.204;2023-02-28T06:48:43;12.70;;;6.70;;
49502;SDS011;35409;48.776;9.204;2023-02-28T06:51:13;11.80;;;6.35;;
49502;SDS011;35409;48.776;9.204;2023-02-28T06:53:47;12.70;;;6.13;;
49502;SDS011;35409;48.776;9.204;2023-02-28T06:56:13;12.73;;;7.53;;
49502;SDS011;35409;48.776;9.204;2023-02-28T06:58:40;10.13;;;6.68;;
49502;SDS011;35409;48.776;9.204;2023-02-28T07:01:07;9.65;;;5.53;;
49502;SDS011;35409;48.776;9.204;2023-02-28T07:03:34;12.88;;;6.32;;
49502;SDS011;35409;48.776;9.204;2023-02-28T07:06:01;14.27;;;7.30;;
49502;SDS011;35409;48.776;9.204;2023-02-28T07:08:27;11.50;;;6.85;;
49502;SDS011;35409;48.776;9.204;2023-02-28T07:10:56;13.68;;;6.80;;
49502;SDS011;35409;48.776;9.204;2023-02-28T07:13:22;14.40;;;7.32;;
49502;SDS011;35409;48.776;9.204;2023-02-28T07:15:55;14.43;;;7.05;;
49502;SDS011;35409;48.776;9.204;2023-02-28T07:18:23;11.27;;;6.95;;
49502;SDS011;35409;48.776;9.204;2023-02-28T07:20:49;12.60;;;7.20;;
49502;SDS011;35409;48.776;9.204;2023-02-28T07:23:15;12.07;;;6.53;;
49502;SDS011;35409;48.776;9.204;2023-02-28T07:25:41;15.10;;;7.18;;
49502;SDS011;35409;48.776;9.204;2023-02-28T07:28:07;13.35;;;7.68;;
49502;SDS011;35409;48.776;9.204;2023-02-28T07:30:32;13.02;;;7.30;;
49502;SDS011;35409;48.776;9.204;2023-02-28T07:32:58;12.95;;;7.47;;
49502;SDS011;35409;48.776;9.204;2023-02-28T07:35:23;15.75;;;7.32;;
49502;SDS011;35409;48.776;9.204;2023-02-28T07:37:49;15.45;;;7.78;;
49502;SDS011;35409;48.776;9.204;2023-02-28T07:40:15;15.70;;;8.40;;
49502;SDS011;35409;48.776;9.204;2023-02-28T07:42:43;16.73;;;7.95;;
49502;SDS011;35409;48.776;9.204;2023-02-28T07:45:09;16.30;;;7.68;;
49502;SDS011;35409;48.776;9.204;2023-02-28T07:47:37;15.30;;;8.07;;
49502;SDS011;35409;48.776;9.204;2023-02-28T07:50:04;13.05;;;7.38;;
49502;SDS011;35409;48.776;9.204;2023-02-28T07:52:31;11.70;;;7.30;;
49502;SDS011;35409;48.776;9.204;2023-02-28T07:54:57;13.52;;;7.32;;
49502;SDS011;35409;48.776;9.204;2023-02-28T07:57:22;13.05;;;6.90;;
49502;SDS011;35409;48.776;9.204;2023-02-28T07:59:48;13.30;;;8.02;;
49502;SDS011;35409;48.776;9.204;2023-02-28T08:02:14;13.85;;;8.05;;
49502;SDS011;35409;48.776;9.204;2023-02-28T08:04:42;16.45;;;8.55;;
49502;SDS011;35409;48.776;9.204;2023-02-28T08:07:08;16.40;;;9.05;;
49502;SDS011;35409;48.776;9.204;2023-02-28T08:12:03;14.50;;;7.70;;
49502;SDS011;35409;48.776;9.204;2023-02-28T08:14:29;11.18;;;7.63;;
49502;SDS011;35409;48.776;9.204;2023-02-28T08:16:55;13.80;;;8.10;;
49502;SDS011;35409;48.776;9.204;2023-02-28T08:19:20;16.60;;;8.32;;
49502;SDS011;35409;48.776;9.204;2023-02-28T08:21:46;14.10;;;8.00;;
49502;SDS011;35409;48.776;9.204;2023-02-28T08:24:11;13.75;;;8.10;;
49502;SDS011;35409;48.776;9.204;2023-02-28T08:26:37;11.95;;;7.85;;
49502;SDS011;35409;48.776;9.204;2023-02-28T08:29:03;14.02;;;7.45;;
49502;SDS011;35409;48.776;9.204;2023-02-28T08:31:28;14.07;;;7.80;;
49502;SDS011;35409;48.776;9.204;2023-02-28T08:33:54;16.63;;;8.23;;
49502;SDS011;35409;48.776;9.204;2023-02-28T08:36:23;15.30;;;8.10;;
49502;SDS011;35409;48.776;9.204;2023-02-28T08:38:49;17.15;;;8.48;;
49502;SDS011;35409;48.776;9.204;2023-02-28T08:41:16;13.95;;;8.23;;
49502;SDS011;35409;48.776;9.204;2023-02-28T08:43:42;14.25;;;8.68;;
49502;SDS011;35409;48.776;9.204;2023-02-28T08:46:08;14.02;;;7.38;;
49502;SDS011;35409;48.776;9.204;2023-02-28T08:48:36;12.90;;;8.35;;
49502;SDS011;35409;48.776;9.204;2023-02-28T08:51:07;14.25;;;7.90;;
49502;SDS011;35409;48.776;9.204;2023-02-28T08:53:34;17.40;;;8.45;;
49502;SDS011;35409;48.776;9.204;2023-02-28T08:56:01;14.57;;;8.45;;
49502;SDS011;35409;48.776;9.204;2023-02-28T08:58:29;13.48;;;8.60;;
49502;SDS011;35409;48.776;9.204;2023-02-28T09:00:55;12.70;;;8.13;;
49502;SDS011;35409;48.776;9.204;2023-02-28T09:03:21;19.05;;;8.82;;
49502;SDS011;35409;48.776;9.204;2023-02-28T09:05:54;14.55;;;8.48;;
49502;SDS011;35409;48.776;9.204;2023-02-28T09:08:22;17.02;;;8.68;;
49502;SDS011;35409;48.776;9.204;2023-02-28T09:10:49;13.10;;;8.10;;
49502;SDS011;35409;48.776;9.204;2023-02-28T09:13:16;13.25;;;8.23;;
49502;SDS011;35409;48.776;9.204;2023-02-28T09:15:42;13.93;;;8.77;;
49502;SDS011;35409;48.776;9.204;2023-02-28T09:18:07;15.32;;;8.00;;
49502;SDS011;35409;48.776;9.204;2023-02-28T09:20:33;15.25;;;8.20;;
49502;SDS011;35409;48.776;9.204;2023-02-28T09:23:02;17.50;;;8.47;;
49502;SDS011;35409;48.776;9.204;2023-02-28T09:25:28;14.65;;;8.48;;
49502;SDS011;35409;48.776;9.204;2023-02-28T09:27:53;16.25;;;8.25;;
49502;SDS011;35409;48.776;9.204;2023-02-28T09:30:19;17.05;;;8.57;;
49502;SDS011;35409;48.776;9.204;2023-02-28T09:32:44;13.60;;;8.60;;
49502;SDS011;35409;48.776;9.204;2023-02-28T09:35:16;14.85;;;8.75;;
49502;SDS011;35409;48.776;9.204;2023-02-28T09:37:43;12.35;;;8.00;;
49502;SDS011;35409;48.776;9.204;2023-02-28T09:40:09;15.13;;;8.75;;
49502;SDS011;35409;48.776;9.204;2023-02-28T09:42:37;14.45;;;8.95;;
49502;SDS011;35409;48.776;9.204;2023-02-28T09:45:05;13.52;;;8.68;;
49502;SDS011;35409;48.776;9.204;2023-02-28T09:47:43;15.90;;;8.70;;
49502;SDS011;35409;48.776;9.204;2023-02-28T09:50:16;16.50;;;9.23;;
49502;SDS011;35409;48.776;9.204;2023-02-28T09:52:54;21.45;;;9.40;;
49502;SDS011;35409;48.776;9.204;2023-02-28T09:55:22;14.07;;;8.40;;
49502;SDS011;35409;48.776;9.204;2023-02-28T09:57:58;15.05;;;8.30;;
49502;SDS011;35409;48.776;9.204;2023-02-28T10:00:33;14.18;;;8.50;;
49502;SDS011;35409;48.776;9.204;2023-02-28T10:06:10;14.70;;;8.57;;
49502;SDS011;35409;48.776;9.204;2023-02-28T10:08:45;16.75;;;8.88;;
49502;SDS011;35409;48.776;9.204;2023-02-28T10:11:21;15.30;;;8.97;;
49502;SDS011;35409;48.776;9.204;2023-02-28T10:13:59;16.10;;;8.63;;
49502;SDS011;35409;48.776;9.204;2023-02-28T10:16:35;14.23;;;8.77;;
49502;SDS011;35409;48.776;9.204;2023-02-28T10:19:20;13.43;;;8.33;;
49502;SDS011;35409;48.776;9.204;2023-02-28T10:22:10;13.43;;;8.60;;
49502;SDS011;35409;48.776;9.204;2023-02-28T10:24:46;17.08;;;9.20;;
49502;SDS011;35409;48.776;9.204;2023-02-28T10:27:18;13.50;;;8.13;;
49502;SDS011;35409;48.776;9.204;2023-02-28T10:29:49;16.27;;;9.40;;
49502;SDS011;35409;48.776;9.204;2023-02-28T10:32:18;14.07;;;8.38;;
49502;SDS011;35409;48.776;9.204;2023-02-28T10:35:10;17.23;;;8.68;;
49502;SDS011;35409;48.776;9.204;2023-02-28T10:37:37;15.93;;;8.45;;
49502;SDS011;35409;48.776;9.204;2023-02-28T10:40:04;18.65;;;9.05;;
49502;SDS011;35409;48.776;9.204;2023-02-28T10:42:31;14.85;;;8.40;;
49502;SDS011;35409;48.776;9.204;2023-02-28T10:45:14;12.52;;;8.52;;
49502;SDS011;35409;48.776;9.204;2023-02-28T10:47:55;13.30;;;8.40;;
49502;SDS011;35409;48.776;9.204;2023-02-28T10:50:33;13.57;;;8.38;;
49502;SDS011;35409;48.776;9.204;2023-02-28T10:55:55;11.77;;;8.30;;
49502;SDS011;35409;48.776;9.204;2023-02-28T10:58:23;15.88;;;8.60;;
49502;SDS011;35409;48.776;9.204;2023-02-28T11:00:51;14.35;;;8.68;;
49502;SDS011;35409;48.776;9.204;2023-02-28T11:03:38;13.65;;;7.88;;
49502;SDS011;35409;48.776;9.204;2023-02-28T11:06:05;19.98;;;9.45;;
49502;SDS011;35409;48.776;9.204;2023-02-28T11:08:33;13.38;;;9.00;;
49502;SDS011;35409;48.776;9.204;2023-02-28T11:11:00;14.25;;;9.50;;
49502;SDS011;35409;48.776;9.204;2023-02-28T11:13:33;15.85;;;9.13;;
49502;SDS011;35409;48.776;9.204;2023-02-28T11:16:03;13.40;;;9.20;;
49502;SDS011;35409;48.776;9.204;2023-02-28T11:21:00;13.20;;;8.60;;
49502;SDS011;35409;48.776;9.204;2023-02-28T11:23:28;14.40;;;8.98;;
49502;SDS011;35409;48.776;9.204;2023-02-28T11:25:58;11.85;;;8.18;;
49502;SDS011;35409;48.776;9.204;2023-02-28T11:28:29;16.65;;;9.55;;
49502;SDS011;35409;48.776;9.204;2023-02-28T11:31:01;15.07;;;8.65;;
49502;SDS011;35409;48.776;9.204;2023-02-28T11:33:52;14.02;;;8.68;;
49502;SDS011;35409;48.776;9.204;2023-02-28T11:36:21;14.95;;;9.30;;
49502;SDS011;35409;48.776;9.204;2023-02-28T11:38:55;16.58;;;8.95;;
49502;SDS011;35409;48.776;9.204;2023-02-28T11:44:11;14.52;;;9.00;;
49502;SDS011;35409;48.776;9.204;2023-02-28T11:54:35;15.15;;;9.55;;
49502;SDS011;35409;48.776;9.204;2023-02-28T11:57:20;13.40;;;8.25;;
49502;SDS011;35409;48.776;9.204;2023-02-28T12:19:05;12.85;;;7.90;;
49502;SDS011;35409;48.776;9.204;2023-02-28T12:24:17;13.80;;;8.45;;
49502;SDS011;35409;48.776;9.204;2023-02-28T12:26:57;12.80;;;8.60;;
49502;SDS011;35409;48.776;9.204;2023-02-28T12:29:30;12.50;;;8.85;;
49502;SDS011;35409;48.776;9.204;2023-02-28T12:32:19;10.93;;;7.80;;
49502;SDS011;35409;48.776;9.204;2023-02-28T12:34:58;12.35;;;8.38;;
49502;SDS011;35409;48.776;9.204;2023-02-28T12:37:31;12.82;;;8.25;;
49502;SDS011;35409;48.776;9.204;2023-02-28T12:40:05;10.35;;;7.45;;
49502;SDS011;35409;48.776;9.204;2023-02-28T12:42:42;11.63;;;8.52;;
49502;SDS011;35409;48.776;9.204;2023-02-28T12:45:26;11.65;;;8.35;;
49502;SDS011;35409;48.776;9.204;2023-02-28T12:48:00;10.63;;;7.50;;
49502;SDS011;35409;48.776;9.204;2023-02-28T12:50:30;12.07;;;8.07;;
49502;SDS011;35409;48.776;9.204;2023-02-28T12:58:23;9.90;;;7.40;;
49502;SDS011;35409;48.776;9.204;2023-02-28T13:14:26;12.25;;;8.07;;
49502;SDS011;35409;48.776;9.204;2023-02-28T13:19:29;10.07;;;7.80;;
49502;SDS011;35409;48.776;9.204;2023-02-28T13:21:57;11.60;;;8.18;;
49502;SDS011;35409;48.776;9.204;2023-02-28T13:29:33;11.88;;;8.07;;
49502;SDS011;35409;48.776;9.204;2023-02-28T13:34:36;9.20;;;7.32;;
49502;SDS011;35409;48.776;9.204;2023-02-28T13:39:55;11.23;;;8.23;;
49502;SDS011;35409;48.776;9.204;2023-02-28T13:42:23;12.65;;;8.30;;
49502;SDS011;35409;48.776;9.204;2023-02-28T13:47:39;12.57;;;7.63;;
49502;SDS011;35409;48.776;9.204;2023-02-28T14:07:08;9.50;;;7.05;;
49502;SDS011;35409;48.776;9.204;2023-02-28T14:09:44;10.40;;;7.72;;
49502;SDS011;35409;48.776;9.204;2023-02-28T14:13:01;11.70;;;7.85;;
49502;SDS011;35409;48.776;9.204;2023-02-28T14:18:25;12.93;;;8.00;;
49502;SDS011;35409;48.776;9.204;2023-02-28T14:20:52;12.20;;;7.78;;
49502;SDS011;35409;48.776;9.204;2023-02-28T14:23:45;13.07;;;7.80;;
49502;SDS011;35409;48.776;9.204;2023-02-28T14:32:58;10.82;;;7.47;;
49502;SDS011;35409;48.776;9.204;2023-02-28T14:37:51;16.35;;;8.02;;
49502;SDS011;35409;48.776;9.204;2023-02-28T14:40:22;11.48;;;8.05;;
49502;SDS011;35409;48.776;9.204;2023-02-28T14:43:03;11.52;;;7.55;;
49502;SDS011;35409;48.776;9.204;2023-02-28T14:45:31;11.88;;;7.93;;
49502;SDS011;35409;48.776;9.204;2023-02-28T14:47:58;10.18;;;8.15;;
49502;SDS011;35409;48.776;9.204;2023-02-28T14:50:27;11.90;;;7.68;;
49502;SDS011;35409;48.776;9.204;2023-02-28T14:55:32;11.90;;;8.13;;
49502;SDS011;35409;48.776;9.204;2023-02-28T14:58:01;13.75;;;8.07;;
49502;SDS011;35409;48.776;9.204;2023-02-28T15:02:58;14.18;;;8.95;;
49502;SDS011;35409;48.776;9.204;2023-02-28T15:05:27;19.20;;;7.93;;
49502;SDS011;35409;48.776;9.204;2023-02-28T15:11:04;11.50;;;8.45;;
49502;SDS011;35409;48.776;9.204;2023-02-28T15:13:36;11.85;;;7.65;;
49502;SDS011;35409;48.776;9.204;2023-02-28T15:16:12;11.90;;;8.50;;
49502;SDS011;35409;48.776;9.204;2023-02-28T15:21:13;11.43;;;8.23;;
49502;SDS011;35409;48.776;9.204;2023-02-28T15:23:44;15.63;;;8.02;;
49502;SDS011;35409;48.776;9.204;2023-02-28T15:26:16;11.90;;;7.70;;
49502;SDS011;35409;48.776;9.204;2023-02-28T15:28:48;14.68;;;7.90;;
49502;SDS011;35409;48.776;9.204;2023-02-28T15:31:27;12.38;;;8.90;;
49502;SDS011;35409;48.776;9.204;2023-02-28T15:33:53;12.50;;;8.15;;
49502;SDS011;35409;48.776;9.204;2023-02-28T15:36:20;11.95;;;8.65;;
49502;SDS011;35409;48.776;9.204;2023-02-28T15:38:52;13.80;;;8.57;;
49502;SDS011;35409;48.776;9.204;2023-02-28T15:41:24;14.00;;;8.43;;
49502;SDS011;35409;48.776;9.204;2023-02-28T15:44:13;12.80;;;8.02;;
49502;SDS011;35409;48.776;9.204;2023-02-28T15:49:27;13.52;;;8.68;;
49502;SDS011;35409;48.776;9.204;2023-02-28T15:51:56;14.43;;;7.90;;
49502;SDS011;35409;48.776;9.204;2023-02-28T15:54:28;13.63;;;8.90;;
49502;SDS011;35409;48.776;9.204;2023-02-28T15:56:58;13.63;;;8.95;;
49502;SDS011;35409;48.776;9.204;2023-02-28T15:59:29;13.35;;;9.38;;
49502;SDS011;35409;48.776;9.204;2023-02-28T16:07:25;11.95;;;9.40;;
49502;SDS011;35409;48.776;9.204;2023-02-28T16:09:52;13.90;;;8.70;;
49502;SDS011;35409;48.776;9.204;2023-02-28T16:12:18;13.40;;;9.30;;
49502;SDS011;35409;48.776;9.204;2023-02-28T16:14:51;13.90;;;8.50;;
49502;SDS011;35409;48.776;9.204;2023-02-28T16:17:28;17.25;;;9.18;;
49502;SDS011;35409;48.776;9.204;2023-02-28T16:19:56;15.00;;;8.98;;
49502;SDS011;35409;48.776;9.204;2023-02-28T16:22:22;17.35;;;9.27;;
49502;SDS011;35409;48.776;9.204;2023-02-28T16:24:47;13.20;;;9.45;;
49502;SDS011;35409;48.776;9.204;2023-02-28T16:27:15;14.32;;;9.95;;
49502;SDS011;35409;48.776;9.204;2023-02-28T16:29:49;13.55;;;9.27;;
49502;SDS011;35409;48.776;9.204;2023-02-28T16:32:15;17.02;;;10.00;;
49502;SDS011;35409;48.776;9.204;2023-02-28T16:34:42;15.30;;;9.57;;
49502;SDS011;35409;48.776;9.204;2023-02-28T16:37:15;14.75;;;8.80;;
49502;SDS011;35409;48.776;9.204;2023-02-28T16:39:42;14.70;;;10.23;;
49502;SDS011;35409;48.776;9.204;2023-02-28T16:42:16;17.90;;;9.90;;
49502;SDS011;35409;48.776;9.204;2023-02-28T16:44:48;14.93;;;9.63;;
49502;SDS011;35409;48.776;9.204;2023-02-28T16:47:14;15.98;;;9.73;;
49502;SDS011;35409;48.776;9.204;2023-02-28T16:49:40;15.07;;;9.85;;
49502;SDS011;35409;48.776;9.204;2023-02-28T16:52:07;39.30;;;13.68;;
49502;SDS011;35409;48.776;9.204;2023-02-28T16:54:34;16.55;;;10.35;;
49502;SDS011;35409;48.776;9.204;2023-02-28T16:56:59;15.18;;;9.85;;
49502;SDS011;35409;48.776;9.204;2023-02-28T16:59:26;20.20;;;10.65;;
49502;SDS011;35409;48.776;9.204;2023-02-28T17:01:53;17.55;;;10.60;;
49502;SDS011;35409;48.776;9.204;2023-02-28T17:04:19;18.38;;;9.90;;
49502;SDS011;35409;48.776;9.204;2023-02-28T17:06:45;14.15;;;9.98;;
49502;SDS011;35409;48.776;9.204;2023-02-28T17:09:15;16.27;;;10.63;;
49502;SDS011;35409;48.776;9.204;2023-02-28T17:11:43;17.50;;;10.70;;
49502;SDS011;35409;48.776;9.204;2023-02-28T17:14:09;16.92;;;10.48;;
49502;SDS011;35409;48.776;9.204;2023-02-28T17:16:35;18.13;;;11.48;;
49502;SDS011;35409;48.776;9.204;2023-02-28T17:19:05;25.95;;;12.55;;
49502;SDS011;35409;48.776;9.204;2023-02-28T17:21:32;18.60;;;10.48;;
49502;SDS011;35409;48.776;9.204;2023-02-28T17:23:59;17.27;;;9.73;;
49502;SDS011;35409;48.776;9.204;2023-02-28T17:26:25;18.05;;;9.85;;
49502;SDS011;35409;48.776;9.204;2023-02-28T17:28:51;18.80;;;9.57;;
49502;SDS011;35409;48.776;9.204;2023-02-28T17:31:18;17.35;;;10.38;;
49502;SDS011;35409;48.776;9.204;2023-02-28T17:33:44;16.70;;;10.10;;